createdAt,value
2023-04-20T00:00:10.625Z,-0.2
2023-04-20T00:05:10.840Z,1
2023-04-20T00:11:00.358Z,1.5
2023-04-20T00:16:00.398Z,1.1
2023-04-20T00:21:10.720Z,2.3
2023-04-20T00:27:00.350Z,2.1
2023-04-20T00:32:10.631Z,1.7
2023-04-20T00:38:00.386Z,1.9
2023-04-20T00:43:00.348Z,2.4
2023-04-20T00:48:10.622Z,2.5
2023-04-20T00:53:10.678Z,1.1
2023-04-20T00:59:00.338Z,2.4
2023-04-20T01:04:00.477Z,2.4
2023-04-20T01:09:10.649Z,3.1
2023-04-20T01:15:00.339Z,3
2023-04-20T01:20:00.416Z,1.4
2023-04-20T01:25:00.368Z,2.2
2023-04-20T01:30:10.676Z,2.6
2023-04-20T01:36:00.397Z,2.2
2023-04-20T01:41:10.637Z,2.8
2023-04-20T01:46:10.694Z,2.7
2023-04-20T01:52:00.394Z,3.1
2023-04-20T01:57:10.622Z,2.9
2023-04-20T02:02:10.736Z,2.3
2023-04-20T02:07:10.648Z,2.4
2023-04-20T02:13:00.340Z,2.5
2023-04-20T02:18:00.488Z,2.6
2023-04-20T02:23:10.620Z,2.9
2023-04-20T02:28:10.641Z,2
2023-04-20T02:34:00.402Z,2.3
2023-04-20T02:39:10.628Z,2.6
2023-04-20T02:44:10.669Z,2.9
2023-04-20T02:50:00.341Z,3
2023-04-20T02:55:00.354Z,3.5
2023-04-20T03:00:00.367Z,3.8
2023-04-20T03:05:10.655Z,3.6
2023-04-20T03:11:00.345Z,4
2023-04-20T03:16:00.409Z,4.3
2023-04-20T03:21:10.831Z,4.3
2023-04-20T03:26:10.669Z,3.6
2023-04-20T03:32:00.412Z,4
2023-04-20T03:37:00.412Z,4.2
2023-04-20T03:42:10.655Z,4.4
2023-04-20T03:48:00.383Z,4.2
2023-04-20T03:53:07.053Z,3.6
2023-04-20T03:58:10.635Z,3.5
2023-04-20T04:03:10.958Z,4.2
2023-04-20T04:09:00.355Z,4.4
2023-04-20T04:14:00.365Z,5
2023-04-20T04:19:10.787Z,5.3
2023-04-20T04:25:00.356Z,5.7
2023-04-20T04:30:00.378Z,5.5
2023-04-20T04:35:10.639Z,5.4
2023-04-20T04:41:00.391Z,5.4
2023-04-20T04:46:10.648Z,5.3
2023-04-20T04:52:00.354Z,5.4
2023-04-20T04:57:10.645Z,5.7
2023-04-20T05:03:00.547Z,5.5
2023-04-20T05:08:00.366Z,6.3
2023-04-20T05:13:10.649Z,6.6
2023-04-20T05:19:00.344Z,6.4
2023-04-20T05:24:00.361Z,6.3
2023-04-20T05:29:10.679Z,6.5
2023-04-20T05:34:10.645Z,6.4
2023-04-20T05:40:00.345Z,6
2023-04-20T05:45:10.624Z,6.8
2023-04-20T05:51:00.360Z,7.8
2023-04-20T05:56:10.634Z,8
2023-04-20T06:01:10.636Z,8.2
2023-04-20T06:06:10.665Z,8.3
2023-04-20T06:12:00.357Z,8.4
2023-04-20T06:17:00.380Z,8.5
2023-04-20T06:22:10.656Z,8.7
2023-04-20T06:28:00.382Z,8.4
2023-04-20T06:33:12.373Z,8.1
2023-04-20T06:39:00.360Z,8.4
2023-04-20T06:44:00.373Z,8.3
2023-04-20T06:49:00.418Z,8.3
2023-04-20T06:54:10.638Z,8.6
2023-04-20T06:59:10.634Z,8.6
2023-04-20T07:05:00.618Z,8.4
2023-04-20T07:10:00.380Z,8.3
2023-04-20T07:15:10.661Z,8.3
2023-04-20T07:21:00.384Z,8.7
2023-04-20T07:26:10.629Z,8.8
2023-04-20T07:31:10.634Z,8.4
2023-04-20T07:36:10.638Z,8.1
2023-04-20T07:42:00.371Z,8.7
2023-04-20T07:47:10.636Z,9.5
2023-04-20T07:52:16.794Z,9.5
2023-04-20T07:57:10.666Z,8.8
2023-04-20T08:03:00.456Z,8.6
2023-04-20T08:08:10.655Z,9
2023-04-20T08:14:00.466Z,8.7
2023-04-20T08:19:10.674Z,8.9
2023-04-20T08:24:10.632Z,9.1
2023-04-20T08:29:10.668Z,9.2
2023-04-20T08:35:00.356Z,9.5
2023-04-20T08:40:00.366Z,9.7
2023-04-20T08:45:00.355Z,9.8
2023-04-20T08:50:00.358Z,10
2023-04-20T08:55:00.387Z,10.2
2023-04-20T09:00:00.380Z,10.5
2023-04-20T09:05:10.672Z,9.7
2023-04-20T09:10:10.668Z,9.3
2023-04-20T09:21:10.672Z,9
2023-04-20T09:27:00.357Z,8.7
2023-04-20T09:32:00.404Z,8.5
2023-04-20T09:37:00.404Z,8
2023-04-20T09:42:10.656Z,8.3
2023-04-20T09:48:00.463Z,9
2023-04-20T09:53:00.360Z,8.9
2023-04-20T09:58:10.627Z,8.8
2023-04-20T10:03:10.851Z,9.1
2023-04-20T10:09:00.411Z,8.8
2023-04-20T10:14:10.638Z,9.7
2023-04-20T10:19:10.680Z,8.2
2023-04-20T10:24:10.701Z,9
2023-04-20T10:29:10.676Z,7.4
2023-04-20T10:35:00.362Z,7.5
2023-04-20T10:40:00.377Z,7.6
2023-04-20T10:45:00.384Z,8.8
2023-04-20T10:50:10.653Z,7.8
2023-04-20T10:56:00.453Z,8.6
2023-04-20T11:01:10.632Z,8.9
2023-04-20T11:06:10.642Z,9.2
2023-04-20T11:12:00.454Z,8.7
2023-04-20T11:17:10.635Z,8
2023-04-20T11:22:10.655Z,8.1
2023-04-20T11:27:10.646Z,7.5
2023-04-20T11:32:10.781Z,8.1
2023-04-20T11:38:00.398Z,8
2023-04-20T11:43:10.634Z,8.3
2023-04-20T11:48:10.753Z,8.4
2023-04-20T11:53:10.659Z,7.9
2023-04-20T11:59:00.410Z,7.7
2023-04-20T12:04:00.641Z,8.6
2023-04-20T12:09:10.647Z,7.8
2023-04-20T12:14:17.251Z,7.5
2023-04-20T12:20:00.455Z,7.9
2023-04-20T12:25:10.629Z,7.5
2023-04-20T12:31:00.531Z,8.2
2023-04-20T12:41:10.640Z,6.5
2023-04-20T12:52:00.455Z,6.5
2023-04-20T12:57:10.621Z,6.2
2023-04-20T13:02:10.702Z,6.7
2023-04-20T13:07:10.647Z,5.7
2023-04-20T13:12:10.646Z,7.1
2023-04-20T13:18:00.393Z,6.8
2023-04-20T13:23:10.662Z,5.9
2023-04-20T13:29:00.715Z,5.7
2023-04-20T13:34:00.392Z,5.9
2023-04-20T13:39:10.647Z,6.5
2023-04-20T13:44:10.689Z,5.9
2023-04-20T13:49:13.214Z,5.1
2023-04-20T13:55:00.380Z,6.2
2023-04-20T14:00:10.653Z,5.2
2023-04-20T14:06:00.376Z,5.3
2023-04-20T14:11:00.381Z,5.5
2023-04-20T14:16:00.616Z,5.3
2023-04-20T14:21:00.386Z,5.8
2023-04-20T14:26:10.654Z,5
2023-04-20T14:31:10.753Z,4.6
2023-04-20T14:37:00.402Z,5.2
2023-04-20T14:42:10.665Z,5.2
2023-04-20T14:48:00.661Z,4.7
2023-04-20T14:53:10.639Z,4.9
2023-04-20T14:58:10.660Z,5.1
2023-04-20T15:03:10.787Z,5.3
2023-04-20T15:09:00.459Z,3.9
2023-04-20T15:14:10.649Z,4.1
2023-04-20T15:19:10.678Z,3.8
2023-04-20T15:25:00.401Z,4
2023-04-20T15:30:10.639Z,3.9
2023-04-20T15:35:10.664Z,4.1
2023-04-20T15:41:00.378Z,4.1
2023-04-20T15:46:00.621Z,4.3
2023-04-20T15:51:10.766Z,3.8
2023-04-20T15:56:10.669Z,3.9
2023-04-20T16:02:00.443Z,4.3
2023-04-20T16:07:10.656Z,4.9
2023-04-20T16:13:00.379Z,5.8
2023-04-20T16:18:00.480Z,6.2
2023-04-20T16:23:10.635Z,6.4
2023-04-20T16:28:10.725Z,6.8
2023-04-20T16:34:00.394Z,7.4
2023-04-20T16:39:00.389Z,7.9
2023-04-20T16:44:10.671Z,8.7
2023-04-20T16:49:10.748Z,8.9
2023-04-20T16:54:10.694Z,8.9
2023-04-20T17:00:00.425Z,9.1
2023-04-20T17:05:00.415Z,9.3
2023-04-20T17:10:10.672Z,9.4
2023-04-20T17:21:00.405Z,10.2
2023-04-20T17:26:10.654Z,10.5
2023-04-20T17:31:10.819Z,10.2
2023-04-20T17:37:00.367Z,10
2023-04-20T17:42:00.383Z,9.6
2023-04-20T17:47:00.396Z,9.9
2023-04-20T17:52:10.658Z,9.5
2023-04-20T17:57:10.683Z,9.3
2023-04-20T18:03:00.564Z,9.7
2023-04-20T18:08:10.688Z,9.9
2023-04-20T18:14:00.391Z,9.7
2023-04-20T18:19:00.439Z,10.1
2023-04-20T18:24:10.656Z,10.1
2023-04-20T18:29:10.700Z,10.2
2023-04-20T18:35:00.441Z,10.4
2023-04-20T18:40:00.395Z,10.1
2023-04-20T18:45:01.267Z,9.9
2023-04-20T18:50:10.673Z,10.2
2023-04-20T18:55:10.666Z,10.3
2023-04-20T19:00:10.680Z,10.5
2023-04-20T19:06:00.389Z,10.5
2023-04-20T19:11:10.679Z,10.4
2023-04-20T19:16:10.828Z,10.4
2023-04-20T19:22:00.385Z,10.3
2023-04-20T19:27:10.658Z,9.7
2023-04-20T19:32:10.702Z,9.6
2023-04-20T19:38:00.391Z,9.7
2023-04-20T19:43:10.685Z,9.6
2023-04-20T19:48:10.751Z,9.4
2023-04-20T19:54:00.393Z,9.4
2023-04-20T19:59:00.439Z,9.5
2023-04-20T20:04:10.858Z,9.5
2023-04-20T20:10:00.390Z,9.1
2023-04-20T20:15:00.433Z,8.9
2023-04-20T20:20:10.674Z,8.6
2023-04-20T20:26:00.409Z,8.7
2023-04-20T20:31:10.674Z,8.2
2023-04-20T20:36:10.664Z,8.2
2023-04-20T20:42:00.386Z,8.1
2023-04-20T20:47:10.674Z,8.2
2023-04-20T20:53:00.409Z,8.1
2023-04-20T20:58:10.671Z,8.2
2023-04-20T21:03:10.893Z,8.5
2023-04-20T21:08:10.684Z,8.4
2023-04-20T21:13:10.682Z,8.3
2023-04-20T21:19:00.388Z,8.4
2023-04-20T21:24:00.404Z,8.6
2023-04-20T21:29:10.680Z,8.6
2023-04-20T21:34:10.687Z,8.9
2023-04-20T21:40:00.424Z,9
2023-04-20T21:45:00.416Z,9
2023-04-20T21:50:00.422Z,9.1
2023-04-20T21:55:10.663Z,9.2
2023-04-20T22:00:10.706Z,9.1
2023-04-20T22:06:00.380Z,9.1
2023-04-20T22:11:00.394Z,9
2023-04-20T22:16:00.441Z,8.9
2023-04-20T22:21:10.683Z,9
2023-04-20T22:27:00.389Z,9.1
2023-04-20T22:32:10.675Z,8.9
2023-04-20T22:38:00.389Z,8.7
2023-04-20T22:43:10.668Z,8.6
2023-04-20T22:48:10.678Z,8.8
2023-04-20T22:54:00.389Z,8.9
2023-04-20T22:59:00.420Z,9
2023-04-20T23:04:10.761Z,8.9
2023-04-20T23:10:00.586Z,9.1
2023-04-20T23:15:10.674Z,9.2
2023-04-20T23:21:00.384Z,9
2023-04-20T23:26:10.650Z,9.1
2023-04-20T23:31:10.709Z,9
2023-04-20T23:36:10.683Z,9.1
2023-04-20T23:42:00.392Z,9.2
2023-04-20T23:47:10.691Z,9.2
2023-04-20T23:52:10.981Z,9.1
2023-04-20T23:58:00.415Z,9.2
